createdAt,value
2023-01-11T00:01:08.532Z,77858.03
2023-01-11T00:03:35.719Z,77853.97
2023-01-11T00:06:03.016Z,77847.91
2023-01-11T00:08:30.037Z,77849.94
2023-01-11T00:10:57.423Z,77849.94
2023-01-11T00:13:24.509Z,77853.97
2023-01-11T00:15:51.773Z,77860.06
2023-01-11T00:18:18.743Z,77849.94
2023-01-11T00:20:45.976Z,77853.97
2023-01-11T00:23:12.946Z,77847.91
2023-01-11T00:25:40.548Z,77849.94
2023-01-11T00:28:07.510Z,77841.81
2023-01-11T00:30:35.903Z,77849.94
2023-01-11T00:33:02.854Z,77853.97
2023-01-11T00:35:32.250Z,77845.88
2023-01-11T00:37:59.458Z,77853.97
2023-01-11T00:40:27.175Z,77853.97
2023-01-11T00:43:12.601Z,77849.94
2023-01-11T00:45:59.757Z,77841.81
2023-01-11T00:48:26.726Z,77837.75
2023-01-11T00:50:55.576Z,77847.91
2023-01-11T00:53:22.765Z,77866.16
2023-01-11T00:55:49.970Z,77862.09
2023-01-11T00:58:16.893Z,77870.22
2023-01-11T01:00:44.119Z,77874.25
2023-01-11T01:03:11.101Z,77870.22
2023-01-11T01:05:39.119Z,77870.22
2023-01-11T01:08:06.523Z,77872.22
2023-01-11T01:10:33.715Z,77874.25
2023-01-11T01:13:19.462Z,77874.25
2023-01-11T01:15:46.807Z,77868.19
2023-01-11T01:18:13.833Z,77866.16
2023-01-11T01:20:41.040Z,77870.22
2023-01-11T01:23:07.882Z,77882.38
2023-01-11T01:25:37.156Z,77882.38
2023-01-11T01:28:04.279Z,77890.47
2023-01-11T01:30:31.580Z,77886.44
2023-01-11T01:32:58.441Z,77874.25
2023-01-11T01:35:25.669Z,77862.09
2023-01-11T01:37:52.545Z,77866.16
2023-01-11T01:40:19.929Z,77858.03
2023-01-11T01:42:46.853Z,77853.97
2023-01-11T01:45:32.169Z,77858.03
2023-01-11T01:48:03.350Z,77866.16
2023-01-11T01:50:37.542Z,77858.03
2023-01-11T01:53:11.211Z,77876.28
2023-01-11T01:55:41.490Z,77874.25
2023-01-11T01:58:14.039Z,77884.41
2023-01-11T02:00:43.909Z,77886.44
2023-01-11T02:03:16.197Z,77882.38
2023-01-11T02:05:43.395Z,77884.41
2023-01-11T02:08:19.258Z,77880.34
2023-01-11T02:10:46.995Z,77874.25
2023-01-11T02:13:14.576Z,77876.28
2023-01-11T02:15:41.856Z,77882.38
2023-01-11T02:18:13.935Z,77878.31
2023-01-11T02:20:59.725Z,77882.38
2023-01-11T02:23:58.162Z,77876.28
2023-01-11T02:27:00.562Z,77868.19
2023-01-11T02:29:45.726Z,77866.16
2023-01-11T02:32:44.977Z,77868.19
2023-01-11T02:35:46.721Z,77866.16
2023-01-11T02:38:28.219Z,77860.06
2023-01-11T02:41:14.069Z,77862.09
2023-01-11T02:44:16.341Z,77858.03
2023-01-11T02:46:54.557Z,77858.03
2023-01-11T02:49:35.506Z,77849.94
2023-01-11T02:52:29.220Z,77845.88
2023-01-11T02:54:59.109Z,77843.84
2023-01-11T02:57:29.445Z,77841.81
2023-01-11T02:59:58.084Z,77841.81
2023-01-11T03:02:25.748Z,77837.75
2023-01-11T03:04:52.793Z,77829.66
2023-01-11T03:07:43.671Z,77829.66
2023-01-11T03:10:42.468Z,77813.44
2023-01-11T03:13:27.956Z,77817.47
2023-01-11T03:16:20.328Z,77825.59
2023-01-11T03:19:13.670Z,77813.44
2023-01-11T03:21:59.264Z,77817.47
2023-01-11T03:24:36.043Z,77817.47
2023-01-11T03:27:05.834Z,77815.44
2023-01-11T03:30:02.324Z,77809.38
2023-01-11T03:32:47.546Z,77805.31
2023-01-11T03:35:40.815Z,77805.31
2023-01-11T03:38:15.805Z,77797.19
2023-01-11T03:40:48.847Z,77797.19
2023-01-11T03:43:19.096Z,77793.16
2023-01-11T03:45:49.600Z,77797.19
2023-01-11T03:48:31.117Z,77805.31
2023-01-11T03:51:00.247Z,77805.31
2023-01-11T03:53:30.167Z,77805.31
2023-01-11T03:56:00.176Z,77801.25
2023-01-11T03:58:27.905Z,77813.44
2023-01-11T04:00:56.670Z,77821.53
2023-01-11T04:03:26.907Z,77825.59
2023-01-11T04:06:00.743Z,77835.72
2023-01-11T04:08:46.020Z,77839.78
2023-01-11T04:11:14.035Z,77853.97
2023-01-11T04:13:41.180Z,77841.81
2023-01-11T04:16:08.460Z,77853.97
2023-01-11T04:18:35.497Z,77853.97
2023-01-11T04:21:02.715Z,77853.97
2023-01-11T04:23:29.692Z,77858.03
2023-01-11T04:25:56.926Z,77853.97
2023-01-11T04:28:23.823Z,77849.94
2023-01-11T04:30:50.983Z,77845.88
2023-01-11T04:33:19.629Z,77866.16
2023-01-11T04:35:46.881Z,77860.06
2023-01-11T04:38:13.810Z,77853.97
2023-01-11T04:40:41.103Z,77845.88
2023-01-11T04:43:08.120Z,77843.84
2023-01-11T04:45:35.281Z,77829.66
2023-01-11T04:48:02.283Z,77829.66
2023-01-11T04:50:29.596Z,77829.66
2023-01-11T04:52:58.202Z,77825.59
2023-01-11T04:55:25.509Z,77837.75
2023-01-11T04:57:52.478Z,77849.94
2023-01-11T05:00:20.031Z,77851.97
2023-01-11T05:02:46.978Z,77870.22
2023-01-11T05:05:14.279Z,77876.28
2023-01-11T05:07:41.306Z,77874.25
2023-01-11T05:10:09.126Z,77882.38
2023-01-11T05:12:36.025Z,77878.31
2023-01-11T05:15:03.352Z,77874.25
2023-01-11T05:17:30.209Z,77874.25
2023-01-11T05:19:57.429Z,77870.22
2023-01-11T05:22:24.384Z,77858.03
2023-01-11T05:24:51.537Z,77864.13
2023-01-11T05:27:18.434Z,77866.16
2023-01-11T05:29:45.676Z,77858.03
2023-01-11T05:32:13.191Z,77853.97
2023-01-11T05:34:40.358Z,77853.97
2023-01-11T05:37:07.227Z,77849.94
2023-01-11T05:39:34.445Z,77849.94
2023-01-11T05:42:01.392Z,77845.88
2023-01-11T05:44:47.130Z,77845.88
2023-01-11T05:47:14.037Z,77845.88
2023-01-11T05:49:41.270Z,77833.69
2023-01-11T05:52:08.173Z,77837.75
2023-01-11T05:54:35.385Z,77825.59
2023-01-11T05:57:02.579Z,77829.66
2023-01-11T05:59:32.033Z,77825.59
2023-01-11T06:01:59.332Z,77817.47
2023-01-11T06:04:27.552Z,77817.47
2023-01-11T06:06:54.643Z,77809.38
2023-01-11T06:09:21.829Z,77805.31
2023-01-11T06:11:50.552Z,77801.25
2023-01-11T06:14:17.827Z,77797.19
2023-01-11T06:16:44.748Z,77801.25
2023-01-11T06:19:12.000Z,77805.31
2023-01-11T06:21:39.034Z,77813.44
2023-01-11T06:24:06.544Z,77817.47
2023-01-11T06:26:33.423Z,77797.19
2023-01-11T06:29:00.780Z,77793.16
2023-01-11T06:31:27.762Z,77795.19
2023-01-11T06:33:55.138Z,77795.19
2023-01-11T06:36:22.105Z,77805.31
2023-01-11T06:38:49.306Z,77811.41
2023-01-11T06:41:16.239Z,77805.31
2023-01-11T06:43:43.552Z,77805.31
2023-01-11T06:46:15.669Z,77797.19
2023-01-11T06:48:43.858Z,77801.25
2023-01-11T06:51:12.069Z,77809.38
2023-01-11T06:53:41.226Z,77813.44
2023-01-11T06:56:11.189Z,77809.38
2023-01-11T06:58:38.708Z,77809.38
2023-01-11T07:01:06.285Z,77809.38
2023-01-11T07:03:33.700Z,77809.38
2023-01-11T07:06:01.690Z,77807.34
2023-01-11T07:08:28.948Z,77805.31
2023-01-11T07:10:56.204Z,77807.34
2023-01-11T07:13:23.670Z,77809.38
2023-01-11T07:15:51.800Z,77817.47
2023-01-11T07:18:19.837Z,77805.31
2023-01-11T07:20:47.547Z,77805.31
2023-01-11T07:23:15.238Z,77795.19
2023-01-11T07:25:42.138Z,77793.16
2023-01-11T07:28:09.735Z,77793.16
2023-01-11T07:30:55.426Z,77801.25
2023-01-11T07:33:25.126Z,77791.13
2023-01-11T07:35:52.356Z,77797.19
2023-01-11T07:38:19.577Z,77787.06
2023-01-11T07:40:46.627Z,77780.97
2023-01-11T07:43:19.017Z,77785.03
2023-01-11T07:45:49.433Z,77797.19
2023-01-11T07:48:24.992Z,77805.31
2023-01-11T07:50:53.232Z,77805.31
2023-01-11T07:53:20.678Z,77805.31
2023-01-11T07:55:47.811Z,77793.16
2023-01-11T07:58:16.055Z,77801.25
2023-01-11T08:00:43.581Z,77803.28
2023-01-11T08:03:11.182Z,77809.38
2023-01-11T08:05:38.563Z,77801.25
2023-01-11T08:08:07.030Z,77797.19
2023-01-11T08:10:34.707Z,77793.16
2023-01-11T08:13:20.846Z,77801.25
2023-01-11T08:15:47.792Z,77797.19
2023-01-11T08:18:17.154Z,77801.25
2023-01-11T08:20:44.095Z,77787.06
2023-01-11T08:23:11.319Z,77780.97
2023-01-11T08:25:38.324Z,77785.03
2023-01-11T08:28:07.085Z,77785.03
2023-01-11T08:30:34.888Z,77805.31
2023-01-11T08:33:02.629Z,77809.38
2023-01-11T08:35:30.888Z,77813.44
2023-01-11T08:37:58.096Z,77805.31
2023-01-11T08:40:25.743Z,77801.25
2023-01-11T08:42:57.115Z,77809.38
2023-01-11T08:45:25.156Z,77809.38
2023-01-11T08:47:53.304Z,77805.31
2023-01-11T08:50:22.207Z,77829.66
2023-01-11T08:52:51.236Z,77853.97
2023-01-11T08:55:21.571Z,77841.81
2023-01-11T08:57:48.774Z,77833.69
2023-01-11T09:00:16.108Z,77825.59
2023-01-11T09:02:47.553Z,77841.81
2023-01-11T09:05:16.850Z,77849.94
2023-01-11T09:07:46.284Z,77856.00
2023-01-11T09:10:13.464Z,77851.97
2023-01-11T09:12:40.738Z,77833.69
2023-01-11T09:15:08.253Z,77833.69
2023-01-11T09:17:35.382Z,77825.59
2023-01-11T09:20:02.330Z,77837.75
2023-01-11T09:22:29.715Z,77833.69
2023-01-11T09:24:59.125Z,77829.66
2023-01-11T09:27:26.650Z,77821.53
2023-01-11T09:29:53.625Z,77829.66
2023-01-11T09:32:20.839Z,77813.44
2023-01-11T09:34:49.680Z,77801.25
2023-01-11T09:37:17.196Z,77799.22
2023-01-11T09:39:44.797Z,77809.38
2023-01-11T09:42:39.131Z,77833.69
2023-01-11T09:45:14.615Z,77817.47
2023-01-11T09:48:11.814Z,77801.25
2023-01-11T09:50:48.645Z,77793.16
2023-01-11T09:53:34.874Z,77776.94
2023-01-11T09:56:05.480Z,77789.09
2023-01-11T09:58:42.802Z,77772.88
2023-01-11T10:01:17.663Z,77762.72
2023-01-11T10:04:06.229Z,77732.31
2023-01-11T10:06:36.256Z,77720.16
2023-01-11T10:18:22.408Z,77693.78
2023-01-11T10:19:04.255Z,77671.47
2023-01-11T10:21:35.802Z,77681.63
2023-01-11T10:24:08.644Z,77663.38
2023-01-11T10:26:40.136Z,77667.44
2023-01-11T10:29:59.682Z,77663.38
2023-01-11T10:32:54.108Z,77663.38
2023-01-11T10:35:45.944Z,77659.31
2023-01-11T10:38:49.299Z,77663.38
2023-01-11T10:41:49.207Z,77651.19
2023-01-11T10:44:28.982Z,77639.03
2023-01-11T10:46:58.033Z,77622.81
2023-01-11T10:49:25.893Z,77618.75
2023-01-11T10:51:58.962Z,77606.59
2023-01-11T10:54:32.624Z,77594.44
2023-01-11T10:57:18.171Z,77590.38
2023-01-11T11:00:17.162Z,77590.38
2023-01-11T11:02:47.159Z,77614.69
2023-01-11T11:05:34.559Z,77600.50
2023-01-11T11:08:27.685Z,77596.44
2023-01-11T11:11:00.816Z,77590.38
2023-01-11T11:13:47.535Z,77590.38
2023-01-11T11:16:23.884Z,77584.28
2023-01-11T11:18:58.500Z,77598.47
2023-01-11T11:21:38.853Z,77596.44
2023-01-11T11:24:14.031Z,77574.16
2023-01-11T11:26:45.456Z,77557.94
2023-01-11T11:29:21.621Z,77541.72
2023-01-11T11:31:50.715Z,77539.69
2023-01-11T11:34:20.996Z,77533.59
2023-01-11T11:36:52.045Z,77529.53
2023-01-11T11:39:30.575Z,77533.59
2023-01-11T11:42:06.671Z,77537.66
2023-01-11T11:44:34.189Z,77531.56
2023-01-11T11:47:02.780Z,77533.59
2023-01-11T11:49:31.884Z,77559.97
2023-01-11T11:52:01.772Z,77553.88
2023-01-11T11:54:31.436Z,77541.72
2023-01-11T11:57:13.465Z,77549.81
2023-01-11T11:59:44.116Z,77533.59
2023-01-11T12:02:24.729Z,77525.47
2023-01-11T12:04:53.416Z,77523.47
2023-01-11T12:07:24.315Z,77529.53
2023-01-11T12:10:00.039Z,77527.50
2023-01-11T12:12:29.553Z,77517.38
2023-01-11T12:15:29.018Z,77501.16
2023-01-11T12:18:22.921Z,77507.25
2023-01-11T12:20:49.878Z,77497.09
2023-01-11T12:23:24.424Z,77491.03
2023-01-11T12:26:00.585Z,77476.81
2023-01-11T12:28:49.847Z,77472.78
2023-01-11T12:31:43.162Z,77472.78
2023-01-11T12:34:37.426Z,77491.03
2023-01-11T12:37:23.360Z,77501.16
2023-01-11T12:40:19.773Z,77503.19
2023-01-11T12:43:11.489Z,77501.16
2023-01-11T12:46:00.542Z,77507.25
2023-01-11T12:49:00.134Z,77503.19
2023-01-11T12:51:52.506Z,77513.31
2023-01-11T12:54:28.623Z,77517.38
2023-01-11T12:57:04.885Z,77525.47
2023-01-11T13:00:10.287Z,77537.66
2023-01-11T13:03:02.646Z,77521.44
2023-01-11T13:05:55.202Z,77525.47
2023-01-11T13:08:41.692Z,77525.47
2023-01-11T13:11:44.892Z,77529.53
2023-01-11T13:14:27.269Z,77533.59
2023-01-11T13:17:13.048Z,77541.72
2023-01-11T13:20:17.981Z,77541.72
2023-01-11T13:22:54.342Z,77537.66
2023-01-11T13:25:28.044Z,77545.75
2023-01-11T13:27:57.840Z,77549.81
2023-01-11T13:30:26.461Z,77553.88
2023-01-11T13:32:58.282Z,77566.03
2023-01-11T13:35:36.866Z,77566.03
2023-01-11T13:38:23.115Z,77553.88
2023-01-11T13:40:55.428Z,77557.94
2023-01-11T13:43:33.475Z,77557.94
2023-01-11T13:46:17.981Z,77561.97
2023-01-11T13:48:53.870Z,77574.16
2023-01-11T13:51:31.542Z,77590.38
2023-01-11T13:54:02.457Z,77586.31
2023-01-11T13:56:39.992Z,77582.25
2023-01-11T13:59:26.231Z,77574.16
2023-01-11T14:02:13.158Z,77576.19
2023-01-11T14:04:55.287Z,77570.09
2023-01-11T14:07:48.568Z,77570.09
2023-01-11T14:10:31.113Z,77574.16
2023-01-11T14:13:10.034Z,77566.03
2023-01-11T14:15:41.158Z,77566.03
2023-01-11T14:18:45.173Z,77586.31
2023-01-11T14:21:23.577Z,77584.28
2023-01-11T14:23:55.261Z,77590.38
2023-01-11T14:26:40.650Z,77578.22
2023-01-11T14:29:30.734Z,77598.47
2023-01-11T14:32:12.560Z,77594.44
2023-01-11T14:35:11.929Z,77586.31
2023-01-11T14:37:52.920Z,77566.03
2023-01-11T14:40:29.961Z,77570.09
2023-01-11T14:43:22.114Z,77564.00
2023-01-11T14:45:58.103Z,77574.16
2023-01-11T14:48:30.336Z,77559.97
2023-01-11T14:51:20.874Z,77557.94
2023-01-11T14:53:58.569Z,77555.91
2023-01-11T14:56:44.270Z,77557.94
2023-01-11T14:59:34.845Z,77547.78
2023-01-11T15:02:05.537Z,77545.75
2023-01-11T15:04:58.421Z,77537.66
2023-01-11T15:07:38.740Z,77527.50
2023-01-11T15:10:30.378Z,77529.53
2023-01-11T15:12:58.499Z,77529.53
2023-01-11T15:15:47.592Z,77521.44
2023-01-11T15:18:22.614Z,77517.38
2023-01-11T15:21:05.199Z,77521.44
2023-01-11T15:23:36.671Z,77509.25
2023-01-11T15:26:06.487Z,77513.31
2023-01-11T15:28:50.500Z,77509.25
2023-01-11T15:31:30.026Z,77495.06
2023-01-11T15:34:18.711Z,77501.16
2023-01-11T15:37:00.805Z,77484.94
2023-01-11T15:39:40.334Z,77486.97
2023-01-11T15:42:28.722Z,77474.78
2023-01-11T15:45:16.516Z,77472.78
2023-01-11T15:48:08.361Z,77493.03
2023-01-11T15:51:03.246Z,77468.72
2023-01-11T15:53:49.154Z,77464.66
2023-01-11T15:56:25.508Z,77464.66
2023-01-11T15:59:07.546Z,77464.66
2023-01-11T16:02:11.687Z,77464.66
2023-01-11T16:05:00.968Z,77460.59
2023-01-11T16:07:50.597Z,77450.47
2023-01-11T16:10:46.066Z,77446.41
2023-01-11T16:13:19.836Z,77448.44
2023-01-11T16:16:20.757Z,77448.44
2023-01-11T16:18:55.334Z,77452.50
2023-01-11T16:21:41.963Z,77456.53
2023-01-11T16:24:15.102Z,77452.50
2023-01-11T16:26:42.498Z,77452.50
2023-01-11T16:29:18.781Z,77452.50
2023-01-11T16:31:59.044Z,77444.38
2023-01-11T16:34:29.152Z,77446.41
2023-01-11T16:36:57.786Z,77436.28
2023-01-11T16:39:29.506Z,77442.34
2023-01-11T16:42:05.689Z,77432.22
2023-01-11T16:44:51.186Z,77424.09
2023-01-11T16:47:20.527Z,77420.06
2023-01-11T16:49:49.905Z,77416.00
2023-01-11T16:52:37.090Z,77420.06
2023-01-11T16:55:14.312Z,77416.00
2023-01-11T16:57:46.231Z,77407.88
2023-01-11T17:00:28.892Z,77399.78
2023-01-11T17:03:18.069Z,77391.66
2023-01-11T17:06:12.974Z,77389.63
2023-01-11T17:08:45.050Z,77387.59
2023-01-11T17:11:24.434Z,77379.50
2023-01-11T17:13:54.777Z,77377.47
2023-01-11T17:16:25.382Z,77375.44
2023-01-11T17:18:54.577Z,77387.59
2023-01-11T17:21:26.927Z,77379.50
2023-01-11T17:23:59.174Z,77363.28
2023-01-11T17:26:30.697Z,77363.28
2023-01-11T17:28:59.717Z,77363.28
2023-01-11T17:31:32.307Z,77363.28
2023-01-11T17:34:23.869Z,77359.22
2023-01-11T17:36:51.293Z,77367.34
2023-01-11T17:39:43.046Z,77361.25
2023-01-11T17:42:31.730Z,77355.16
2023-01-11T17:45:14.052Z,77363.28
2023-01-11T17:47:48.643Z,77359.22
2023-01-11T17:50:29.907Z,77357.19
2023-01-11T17:53:04.169Z,77349.09
2023-01-11T17:55:31.609Z,77353.13
2023-01-11T17:58:13.797Z,77347.06
2023-01-11T18:00:43.855Z,77351.13
2023-01-11T18:03:15.776Z,77340.97
2023-01-11T18:05:43.792Z,77347.06
2023-01-11T18:08:20.455Z,77338.94
2023-01-11T18:10:55.396Z,77334.91
2023-01-11T18:13:34.022Z,77336.91
2023-01-11T18:16:02.881Z,77330.84
2023-01-11T18:18:53.935Z,77336.91
2023-01-11T18:21:50.989Z,77338.94
2023-01-11T18:24:31.751Z,77338.94
2023-01-11T18:27:26.324Z,77343.00
2023-01-11T18:29:55.099Z,77334.91
2023-01-11T18:32:22.571Z,77326.78
2023-01-11T18:34:53.291Z,77330.84
2023-01-11T18:37:21.040Z,77326.78
2023-01-11T18:39:49.563Z,77318.66
2023-01-11T18:42:20.088Z,77322.72
2023-01-11T18:44:49.425Z,77318.66
2023-01-11T18:47:22.870Z,77306.50
2023-01-11T18:49:51.502Z,77310.56
2023-01-11T18:52:20.425Z,77318.66
2023-01-11T18:54:47.883Z,77314.63
2023-01-11T18:57:15.447Z,77310.56
2023-01-11T18:59:42.868Z,77306.50
2023-01-11T19:02:17.750Z,77310.56
2023-01-11T19:04:45.475Z,77326.78
2023-01-11T19:07:13.951Z,77332.88
2023-01-11T19:09:41.157Z,77343.00
2023-01-11T19:12:08.534Z,77351.13
2023-01-11T19:14:35.580Z,77343.00
2023-01-11T19:17:04.670Z,77355.16
2023-01-11T19:19:31.681Z,77363.28
2023-01-11T19:21:59.049Z,77359.22
2023-01-11T19:24:25.964Z,77355.16
2023-01-11T19:26:53.385Z,77355.16
2023-01-11T19:29:22.775Z,77355.16
2023-01-11T19:31:52.275Z,77349.09
2023-01-11T19:34:19.736Z,77347.06
2023-01-11T19:36:48.135Z,77347.06
2023-01-11T19:39:15.180Z,77349.09
2023-01-11T19:41:54.808Z,77343.00
2023-01-11T19:44:22.485Z,77338.94
2023-01-11T19:46:57.047Z,77343.00
2023-01-11T19:49:36.653Z,77343.00
2023-01-11T19:52:04.191Z,77340.97
2023-01-11T19:54:31.145Z,77343.00
2023-01-11T19:56:58.528Z,77338.94
2023-01-11T19:59:25.709Z,77345.03
2023-01-11T20:01:52.872Z,77343.00
2023-01-11T20:04:21.118Z,77351.13
2023-01-11T20:06:52.052Z,77349.09
2023-01-11T20:09:20.253Z,77355.16
2023-01-11T20:11:53.232Z,77363.28
2023-01-11T20:14:20.340Z,77363.28
2023-01-11T20:16:47.559Z,77365.31
2023-01-11T20:19:15.108Z,77363.28
2023-01-11T20:21:42.553Z,77367.34
2023-01-11T20:24:13.947Z,77367.34
2023-01-11T20:26:42.344Z,77359.22
2023-01-11T20:29:09.507Z,77359.22
2023-01-11T20:31:36.783Z,77359.22
2023-01-11T20:34:10.033Z,77351.13
2023-01-11T20:36:37.856Z,77367.34
2023-01-11T20:39:05.409Z,77355.16
2023-01-11T20:41:51.068Z,77347.06
2023-01-11T20:44:24.399Z,77338.94
2023-01-11T20:46:53.716Z,77338.94
2023-01-11T20:49:23.468Z,77326.78
2023-01-11T20:51:50.864Z,77322.72
2023-01-11T20:54:19.022Z,77318.66
2023-01-11T20:56:46.967Z,77306.50
2023-01-11T20:59:20.375Z,77302.44
2023-01-11T21:01:49.501Z,77298.41
2023-01-11T21:04:17.917Z,77302.44
2023-01-11T21:06:48.120Z,77294.34
2023-01-11T21:09:17.464Z,77290.28
2023-01-11T21:11:52.394Z,77286.22
2023-01-11T21:14:20.364Z,77294.34
2023-01-11T21:16:48.011Z,77274.06
2023-01-11T21:19:16.021Z,77267.97
2023-01-11T21:21:43.379Z,77261.91
2023-01-11T21:24:14.060Z,77253.78
2023-01-11T21:26:42.523Z,77257.84
2023-01-11T21:29:11.670Z,77253.78
2023-01-11T21:31:39.755Z,77249.75
2023-01-11T21:34:07.340Z,77253.78
2023-01-11T21:36:34.791Z,77253.78
2023-01-11T21:39:03.376Z,77265.97
2023-01-11T21:41:51.041Z,77265.97
2023-01-11T21:44:19.930Z,77253.78
2023-01-11T21:46:47.746Z,77245.69
2023-01-11T21:49:15.709Z,77245.69
2023-01-11T21:51:43.644Z,77249.75
2023-01-11T21:54:13.515Z,77245.69
2023-01-11T21:56:43.990Z,77243.66
2023-01-11T21:59:10.944Z,77241.63
2023-01-11T22:01:39.722Z,77229.47
2023-01-11T22:04:08.435Z,77233.53
2023-01-11T22:06:40.176Z,77241.63
2023-01-11T22:09:11.947Z,77225.41
2023-01-11T22:11:39.884Z,77229.47
2023-01-11T22:14:08.656Z,77221.34
2023-01-11T22:16:37.352Z,77217.28
2023-01-11T22:19:07.797Z,77221.34
2023-01-11T22:21:36.721Z,77221.34
2023-01-11T22:24:04.990Z,77217.28
2023-01-11T22:26:38.593Z,77217.28
2023-01-11T22:29:12.577Z,77211.22
2023-01-11T22:31:52.506Z,77201.06
2023-01-11T22:34:20.277Z,77205.13
2023-01-11T22:36:48.079Z,77197.03
2023-01-11T22:39:16.447Z,77197.03
2023-01-11T22:41:46.030Z,77188.91
2023-01-11T22:44:14.012Z,77188.91
2023-01-11T22:46:42.146Z,77188.91
2023-01-11T22:49:10.042Z,77186.88
2023-01-11T22:51:37.478Z,77184.84
2023-01-11T22:54:04.795Z,77197.03
2023-01-11T22:56:32.745Z,77188.91
2023-01-11T22:59:00.146Z,77184.84
2023-01-11T23:01:33.344Z,77190.94
2023-01-11T23:04:01.394Z,77192.97
2023-01-11T23:06:29.988Z,77192.97
2023-01-11T23:08:57.493Z,77201.06
2023-01-11T23:11:48.912Z,77209.19
2023-01-11T23:14:17.795Z,77205.13
2023-01-11T23:16:46.880Z,77205.13
2023-01-11T23:19:17.202Z,77209.19
2023-01-11T23:21:46.238Z,77201.06
2023-01-11T23:24:15.398Z,77205.13
2023-01-11T23:26:43.614Z,77209.19
2023-01-11T23:29:10.688Z,77207.16
2023-01-11T23:31:38.147Z,77209.19
2023-01-11T23:34:08.040Z,77213.25
2023-01-11T23:36:37.842Z,77217.28
2023-01-11T23:39:06.925Z,77225.41
2023-01-11T23:41:52.807Z,77235.53
2023-01-11T23:44:19.874Z,77229.47
2023-01-11T23:47:05.633Z,77239.59
2023-01-11T23:49:32.852Z,77245.69
2023-01-11T23:52:00.840Z,77245.69
2023-01-11T23:54:30.202Z,77249.75
2023-01-11T23:56:58.832Z,77253.78
2023-01-11T23:59:26.113Z,77267.97
